Time;durP1;ratioP1;P1;durP2;ratioP2;P2;SDS_P1;SDS_P2;PMS_P1;PMS_P2;Temp;Humidity;BMP_temperature;BMP_pressure;BME280_temperature;BME280_humidity;BME280_pressure;Samples;Min_cycle;Max_cycle;Signal;HPM_P1;HPM_P2
2022/06/09 00:01:18;;;;;;;21.83;11.55;;;;;;;13.15;100.00;100727.41;5032968;28;20488;-56
2022/06/09 00:03:57;;;;;;;22.80;12.15;;;;;;;13.10;100.00;100725.59;5032778;28;20068;-56
2022/06/09 00:06:27;;;;;;;22.10;11.43;;;;;;;13.13;100.00;100730.50;5032892;28;20040;-56
2022/06/09 00:08:53;;;;;;;21.92;11.38;;;;;;;13.09;100.00;100732.31;5032902;28;20025;-54
2022/06/09 00:11:23;;;;;;;24.05;11.82;;;;;;;13.06;100.00;100735.72;5032665;28;20080;-55
2022/06/09 00:13:49;;;;;;;21.17;11.80;;;;;;;12.99;100.00;100732.63;5032711;28;20031;-55
2022/06/09 00:16:15;;;;;;;23.77;12.07;;;;;;;12.99;100.00;100736.19;5033065;28;20104;-56
2022/06/09 00:18:41;;;;;;;23.30;11.93;;;;;;;13.00;100.00;100737.03;5033043;28;20545;-57
2022/06/09 00:21:07;;;;;;;22.20;12.07;;;;;;;12.97;100.00;100737.66;5032614;28;20022;-56
2022/06/09 00:23:32;;;;;;;23.27;11.55;;;;;;;13.01;100.00;100747.81;5030419;28;20040;-55
2022/06/09 00:25:58;;;;;;;26.92;12.70;;;;;;;12.96;100.00;100736.88;5032408;28;20412;-56
2022/06/09 00:28:23;;;;;;;24.50;12.00;;;;;;;12.95;100.00;100741.59;5032855;28;20021;-56
2022/06/09 00:30:50;;;;;;;25.10;12.55;;;;;;;12.93;100.00;100741.13;5032195;28;20022;-56
2022/06/09 00:33:15;;;;;;;23.42;12.20;;;;;;;12.89;100.00;100734.56;5040587;28;20129;-58
2022/06/09 00:35:40;;;;;;;25.90;12.15;;;;;;;12.92;100.00;100736.72;5052600;28;20420;-57
2022/06/09 00:38:06;;;;;;;22.65;11.43;;;;;;;12.89;100.00;100734.56;5052515;28;20032;-55
2022/06/09 00:40:32;;;;;;;24.88;12.55;;;;;;;12.86;100.00;100739.97;5052532;28;20099;-56
2022/06/09 00:43:02;;;;;;;22.08;12.15;;;;;;;12.83;100.00;100738.66;5052677;28;20047;-56
2022/06/09 00:45:44;;;;;;;25.23;12.45;;;;;;;12.80;100.00;100736.50;5051779;28;20032;-57
2022/06/09 00:48:21;;;;;;;27.23;12.88;;;;;;;12.83;100.00;100746.97;5051753;28;20068;-57
2022/06/09 00:50:53;;;;;;;25.40;12.20;;;;;;;12.77;100.00;100734.38;5052098;28;20041;-57
2022/06/09 00:53:31;;;;;;;23.05;11.73;;;;;;;12.74;100.00;100732.28;5052620;28;20503;-56
2022/06/09 00:56:00;;;;;;;23.63;12.05;;;;;;;12.75;100.00;100745.81;5052455;28;20037;-56
2022/06/09 00:58:29;;;;;;;24.60;12.23;;;;;;;12.83;100.00;100744.22;5052146;28;20494;-55
2022/06/09 01:01:00;;;;;;;24.13;12.20;;;;;;;12.72;100.00;100751.19;5051674;28;20029;-57
2022/06/09 01:03:30;;;;;;;24.60;12.25;;;;;;;12.66;100.00;100746.94;5051999;28;20033;-54
2022/06/09 01:06:04;;;;;;;23.45;12.68;;;;;;;12.64;100.00;100750.03;5052154;28;20360;-53
2022/06/09 01:08:32;;;;;;;24.48;11.93;;;;;;;12.66;100.00;100753.31;5050890;28;20021;-52
2022/06/09 01:10:57;;;;;;;25.77;12.55;;;;;;;12.60;100.00;100741.53;5051891;28;20021;-53
2022/06/09 01:13:23;;;;;;;23.02;12.35;;;;;;;12.61;100.00;100747.91;5051618;28;20070;-54
2022/06/09 01:16:23;;;;;;;26.90;12.93;;;;;;;12.57;100.00;100744.94;5051601;28;20029;-54
2022/06/09 01:18:59;;;;;;;25.17;12.40;;;;;;;12.50;100.00;100749.34;5035183;28;20040;-54
2022/06/09 01:22:09;;;;;;;24.30;13.38;;;;;;;12.46;100.00;100754.72;5051797;28;20506;-52
2022/06/09 01:25:12;;;;;;;25.02;13.18;;;;;;;12.42;100.00;100757.28;5052345;28;20352;-52
2022/06/09 01:27:46;;;;;;;26.15;13.15;;;;;;;12.44;100.00;100757.00;5051751;28;20127;-54
2022/06/09 01:30:18;;;;;;;25.98;12.60;;;;;;;12.38;100.00;100767.41;5051094;28;20060;-55
2022/06/09 01:33:07;;;;;;;28.55;12.80;;;;;;;12.38;100.00;100761.88;5051210;28;20033;-51
2022/06/09 01:35:42;;;;;;;24.83;12.38;;;;;;;12.31;100.00;100755.97;5056564;28;20036;-52
2022/06/09 01:38:08;;;;;;;27.30;13.48;;;;;;;12.28;100.00;100754.63;5058198;28;20022;-55
2022/06/09 01:40:33;;;;;;;27.15;13.57;;;;;;;12.30;100.00;100757.91;5058496;28;20021;-53
2022/06/09 01:42:59;;;;;;;26.33;12.90;;;;;;;12.24;100.00;100761.97;5058064;28;20029;-53
2022/06/09 01:45:31;;;;;;;26.67;13.57;;;;;;;12.20;100.00;100749.88;5057975;28;20025;-53
2022/06/09 01:48:16;;;;;;;24.30;13.23;;;;;;;12.26;100.00;100770.81;5057929;28;20032;-52
2022/06/09 01:51:08;;;;;;;28.42;12.75;;;;;;;12.25;100.00;100769.16;5057674;28;20027;-51
2022/06/09 01:53:41;;;;;;;34.30;13.38;;;;;;;12.34;100.00;100769.19;5057927;28;20479;-50
2022/06/09 01:56:15;;;;;;;27.85;13.02;;;;;;;12.34;100.00;100769.19;5058686;28;20025;-49
2022/06/09 01:58:49;;;;;;;30.45;13.32;;;;;;;12.32;100.00;100774.25;5059093;28;20037;-51
2022/06/09 02:01:19;;;;;;;24.67;13.40;;;;;;;12.36;100.00;100769.69;5058089;28;20112;-50
2022/06/09 02:03:49;;;;;;;27.42;14.30;;;;;;;12.31;100.00;100778.16;5041783;28;20025;-54
2022/06/09 02:06:16;;;;;;;31.10;14.10;;;;;;;12.35;100.00;100784.69;5037024;28;20538;-54
2022/06/09 02:08:41;;;;;;;24.98;13.07;;;;;;;12.36;100.00;100782.75;5054684;28;20024;-54
2022/06/09 02:11:11;;;;;;;27.55;13.18;;;;;;;12.30;100.00;100774.56;5058591;28;20361;-54
2022/06/09 02:13:41;;;;;;;28.65;13.43;;;;;;;12.31;100.00;100784.50;5057716;28;20059;-54
2022/06/09 02:16:09;;;;;;;28.67;13.73;;;;;;;12.28;100.00;100792.66;5058024;28;20035;-54
2022/06/09 02:18:41;;;;;;;28.27;13.88;;;;;;;12.27;100.00;100794.63;5057711;28;20178;-54
2022/06/09 02:21:13;;;;;;;26.50;13.27;;;;;;;12.26;100.00;100783.84;5058041;28;20028;-52
2022/06/09 02:23:39;;;;;;;27.05;13.77;;;;;;;12.26;100.00;100798.53;5057992;28;20090;-53
2022/06/09 02:26:05;;;;;;;25.92;12.93;;;;;;;12.26;100.00;100808.78;5089448;22;20056;-52
2022/06/09 02:28:30;;;;;;;30.30;13.95;;;;;;;12.28;100.00;100809.31;5096827;28;20039;-50
2022/06/09 02:30:56;;;;;;;30.60;13.70;;;;;;;12.23;100.00;100810.25;5096519;28;20024;-53
2022/06/09 02:33:21;;;;;;;29.55;13.95;;;;;;;12.23;100.00;100813.03;5096725;28;20040;-53
2022/06/09 02:35:48;;;;;;;26.92;13.50;;;;;;;12.25;100.00;100808.00;5097129;28;20102;-50
2022/06/09 02:38:14;;;;;;;31.38;14.10;;;;;;;12.27;100.00;100816.81;5097078;28;20367;-53
2022/06/09 02:40:39;;;;;;;27.15;14.02;;;;;;;12.27;100.00;100824.31;5096581;28;20020;-54
2022/06/09 02:43:04;;;;;;;27.25;13.88;;;;;;;12.24;100.00;100820.22;5097755;28;20475;-53
2022/06/09 02:45:30;;;;;;;31.10;14.43;;;;;;;12.26;100.00;100820.72;5096503;28;20085;-54
2022/06/09 02:47:55;;;;;;;31.13;15.23;;;;;;;12.23;100.00;100823.31;5093899;28;20034;-54
2022/06/09 02:50:20;;;;;;;31.10;13.95;;;;;;;12.25;100.00;100821.84;5093561;28;20470;-54
2022/06/09 02:52:46;;;;;;;29.50;14.77;;;;;;;12.31;100.00;100828.91;5094127;28;20391;-51
2022/06/09 02:55:12;;;;;;;28.27;13.27;;;;;;;12.34;100.00;100832.97;5094099;28;20063;-51
2022/06/09 02:57:38;;;;;;;29.70;14.52;;;;;;;12.36;100.00;100833.50;5094304;28;20119;-52
2022/06/09 03:00:08;;;;;;;27.83;13.73;;;;;;;12.36;100.00;100835.47;5092623;28;20030;-52
2022/06/09 03:02:34;;;;;;;31.13;13.75;;;;;;;12.36;100.00;100836.25;5093570;28;20028;-52
2022/06/09 03:04:59;;;;;;;32.10;14.18;;;;;;;12.34;100.00;100838.53;5093476;28;20074;-49
2022/06/09 03:07:25;;;;;;;30.05;14.35;;;;;;;12.32;100.00;100838.84;5093086;28;20036;-49
2022/06/09 03:09:51;;;;;;;32.53;14.07;;;;;;;12.36;100.00;100841.00;5093102;28;20108;-49
2022/06/09 03:12:17;;;;;;;29.10;15.10;;;;;;;12.36;100.00;100841.00;5092885;28;20107;-50
2022/06/09 03:14:42;;;;;;;28.40;14.27;;;;;;;12.35;100.00;100861.56;5092686;28;20108;-50
2022/06/09 03:17:08;;;;;;;31.88;15.70;;;;;;;12.36;100.00;100854.88;5092142;28;20021;-50
2022/06/09 03:19:35;;;;;;;28.75;15.35;;;;;;;12.39;100.00;100857.00;5091969;28;20474;-49
2022/06/09 03:22:00;;;;;;;37.45;15.60;;;;;;;12.39;100.00;100868.94;5092681;28;20433;-51
2022/06/09 03:24:26;;;;;;;28.65;14.30;;;;;;;12.37;100.00;100873.16;5093083;28;20066;-52
2022/06/09 03:26:52;;;;;;;29.60;14.38;;;;;;;12.39;100.00;100877.25;5092956;28;20052;-50
2022/06/09 03:29:19;;;;;;;33.05;14.30;;;;;;;12.42;100.00;100875.78;5093126;28;20092;-50
2022/06/09 03:31:46;;;;;;;31.60;14.85;;;;;;;12.45;100.00;100883.50;5093096;28;20024;-51
2022/06/09 03:34:11;;;;;;;29.35;14.18;;;;;;;12.46;100.00;100885.13;5092708;28;20020;-50
2022/06/09 03:36:37;;;;;;;31.67;14.90;;;;;;;12.45;100.00;100889.03;5092597;28;20390;-50
2022/06/09 03:39:02;;;;;;;30.13;14.65;;;;;;;12.45;100.00;100892.63;5092827;28;20467;-51
2022/06/09 03:41:27;;;;;;;29.95;14.35;;;;;;;12.51;100.00;100893.31;5092377;28;20036;-52
2022/06/09 03:43:53;;;;;;;28.83;13.85;;;;;;;12.56;100.00;100909.00;5092928;28;20534;-51
2022/06/09 03:46:18;;;;;;;29.17;14.15;;;;;;;12.55;100.00;100901.81;5092244;28;20379;-53
2022/06/09 03:48:43;;;;;;;33.17;15.50;;;;;;;12.55;100.00;100901.81;5092454;28;20030;-50
2022/06/09 03:51:12;;;;;;;28.42;14.45;;;;;;;12.53;100.00;100904.91;5091300;28;20089;-50
2022/06/09 03:53:39;;;;;;;28.73;15.07;;;;;;;12.54;100.00;100912.09;5092718;28;20028;-53
2022/06/09 03:56:15;;;;;;;28.13;14.35;;;;;;;12.60;100.00;100912.78;5092814;28;20115;-52
2022/06/09 03:58:42;;;;;;;32.13;14.65;;;;;;;12.59;100.00;100908.38;5092011;28;20028;-52
2022/06/09 04:01:13;;;;;;;28.23;13.23;;;;;;;12.59;100.00;100911.94;5092507;28;20028;-53
2022/06/09 04:03:38;;;;;;;27.75;13.68;;;;;;;12.55;100.00;100921.22;5092998;28;20032;-51
2022/06/09 04:06:04;;;;;;;29.35;13.95;;;;;;;12.52;100.00;100928.25;5092154;28;20020;-50
2022/06/09 04:08:29;;;;;;;27.42;14.20;;;;;;;12.49;100.00;100928.88;5092395;28;20024;-51
2022/06/09 04:10:56;;;;;;;31.90;13.98;;;;;;;12.46;100.00;100941.44;5091785;28;20085;-50
2022/06/09 04:13:21;;;;;;;29.38;14.60;;;;;;;12.43;100.00;100930.94;5090602;28;20055;-53
2022/06/09 04:15:47;;;;;;;31.15;14.32;;;;;;;12.41;100.00;100943.50;5092465;28;20067;-53
2022/06/09 04:18:12;;;;;;;28.63;14.32;;;;;;;12.38;100.00;100947.75;5092304;28;20084;-51
2022/06/09 04:20:38;;;;;;;31.25;14.60;;;;;;;12.37;100.00;100946.09;5092424;28;20540;-51
2022/06/09 04:23:04;;;;;;;32.05;13.95;;;;;;;12.35;100.00;100953.09;5092049;28;20489;-53
2022/06/09 04:25:29;;;;;;;27.92;13.88;;;;;;;12.30;100.00;100949.31;5092047;28;20451;-53
2022/06/09 04:27:54;;;;;;;28.67;13.45;;;;;;;12.34;100.00;100952.28;5092502;28;20051;-53
2022/06/09 04:30:21;;;;;;;30.00;13.68;;;;;;;12.38;100.00;100956.06;5091904;28;20027;-55
2022/06/09 04:32:47;;;;;;;29.02;13.25;;;;;;;12.38;100.00;100956.06;5091523;28;20031;-52
2022/06/09 04:35:13;;;;;;;28.67;13.88;;;;;;;12.41;100.00;100963.75;5092043;28;20024;-53
2022/06/09 04:40:24;;;;;;;28.42;13.43;;;;;;;12.48;100.00;100964.13;5091672;28;20409;-53
2022/06/09 04:42:49;;;;;;;27.65;13.35;;;;;;;12.50;100.00;100955.47;5092003;28;20494;-53
2022/06/09 04:45:16;;;;;;;28.77;13.65;;;;;;;12.54;100.00;100955.66;5091449;28;20028;-56
2022/06/09 04:47:41;;;;;;;30.10;13.50;;;;;;;12.60;100.00;100958.00;5091972;28;20032;-54
2022/06/09 04:50:07;;;;;;;27.77;14.18;;;;;;;12.60;100.00;100969.09;5091410;28;20459;-53
2022/06/09 04:52:33;;;;;;;28.33;14.18;;;;;;;12.62;100.00;100971.53;5091616;28;20047;-53
2022/06/09 04:54:59;;;;;;;26.90;14.57;;;;;;;12.66;100.00;100972.56;5091648;28;20020;-52
2022/06/09 04:57:24;;;;;;;25.48;14.20;;;;;;;12.77;100.00;100981.44;5091987;28;20103;-52
2022/06/09 04:59:49;;;;;;;29.92;14.48;;;;;;;12.79;100.00;100973.63;5092080;28;20413;-52
2022/06/09 05:02:15;;;;;;;27.52;14.27;;;;;;;12.85;100.00;100991.75;5091510;28;20032;-53
2022/06/09 05:04:40;;;;;;;30.52;14.75;;;;;;;12.86;100.00;100998.97;5091305;28;20154;-52
2022/06/09 05:07:05;;;;;;;27.50;14.13;;;;;;;12.87;100.00;100992.28;5090791;28;20096;-51
2022/06/09 05:09:31;;;;;;;25.85;13.90;;;;;;;12.87;100.00;100997.81;5090912;28;20078;-52
2022/06/09 05:11:56;;;;;;;28.20;13.82;;;;;;;12.85;100.00;101013.97;5091814;28;20111;-53
2022/06/09 05:14:21;;;;;;;30.85;14.98;;;;;;;12.80;100.00;101003.03;5091531;28;20474;-50
2022/06/09 05:16:47;;;;;;;31.80;14.55;;;;;;;12.81;100.00;101013.00;5091873;28;20040;-49
2022/06/09 05:19:12;;;;;;;29.55;13.52;;;;;;;12.86;100.00;101032.28;5091896;28;20020;-51
2022/06/09 05:21:37;;;;;;;28.77;13.93;;;;;;;13.00;100.00;101020.28;5091455;28;20024;-50
2022/06/09 05:24:03;;;;;;;26.92;14.25;;;;;;;13.09;100.00;101030.28;5091862;28;20474;-49
2022/06/09 05:26:28;;;;;;;27.77;13.98;;;;;;;13.18;100.00;101024.78;5091773;28;20055;-53
2022/06/09 05:28:54;;;;;;;24.42;13.77;;;;;;;13.25;100.00;101025.13;5091776;28;20031;-51
2022/06/09 05:31:19;;;;;;;29.42;14.85;;;;;;;13.41;100.00;101033.09;5091597;28;20020;-52
2022/06/09 05:33:44;;;;;;;24.80;14.48;;;;;;;13.57;100.00;101039.00;5090145;28;20028;-52
2022/06/09 05:36:10;;;;;;;29.20;13.98;;;;;;;13.72;99.93;101032.19;5090599;28;20027;-52
2022/06/09 05:46:48;;;;;;;25.40;12.65;;;;;;;14.13;98.01;101058.78;5091501;28;20133;-52
2022/06/09 05:49:15;;;;;;;26.35;12.38;;;;;;;14.13;96.65;101050.44;5088292;28;20428;-52
2022/06/09 05:51:40;;;;;;;26.15;12.70;;;;;;;14.16;96.71;101069.28;5091006;28;20036;-52
2022/06/09 05:54:06;;;;;;;26.60;12.05;;;;;;;14.16;96.81;101066.50;5091736;28;20028;-51
2022/06/09 05:56:31;;;;;;;27.00;12.48;;;;;;;14.20;95.32;101077.78;5091376;28;20039;-53
2022/06/09 05:58:57;;;;;;;28.08;12.57;;;;;;;14.18;96.05;101069.75;5091690;28;20027;-52
2022/06/09 06:01:22;;;;;;;23.15;12.32;;;;;;;14.19;95.85;101088.09;5091105;28;20028;-52
2022/06/09 06:03:48;;;;;;;24.42;11.70;;;;;;;14.21;96.60;101082.22;5090959;28;20032;-53
2022/06/09 06:08:57;;;;;;;;;;;;;;;14.31;95.93;101094.97;5091645;28;20106;-50
2022/06/09 06:11:23;;;;;;;26.20;11.85;;;;;;;14.21;95.67;101096.13;5089705;28;19908;-51
2022/06/09 06:13:48;;;;;;;23.48;11.98;;;;;;;14.17;96.85;101095.94;5090243;28;20024;-50
2022/06/09 06:16:14;;;;;;;24.13;11.60;;;;;;;14.17;96.89;101107.06;5090613;28;20032;-52
2022/06/09 06:18:39;;;;;;;23.05;11.98;;;;;;;14.19;96.77;101103.97;5089634;28;20035;-50
2022/06/09 06:21:05;;;;;;;22.77;11.57;;;;;;;14.18;97.44;101114.25;5089803;28;20035;-53
2022/06/09 06:23:30;;;;;;;25.52;11.27;;;;;;;14.21;94.90;101123.94;5094384;28;20024;-51
2022/06/09 06:25:56;;;;;;;21.85;11.27;;;;;;;14.17;96.19;101120.97;5093951;28;20093;-50
2022/06/09 06:28:22;;;;;;;22.73;11.05;;;;;;;14.14;96.36;101124.41;5093875;28;20536;-53
2022/06/09 06:30:49;;;;;;;24.15;11.32;;;;;;;14.15;95.66;101122.44;5094685;28;20090;-54
2022/06/09 06:33:15;;;;;;;24.15;10.65;;;;;;;14.18;95.94;101132.94;5094391;28;20024;-52
2022/06/09 06:35:41;;;;;;;22.38;10.90;;;;;;;14.16;96.43;101133.28;5094516;28;20103;-53
2022/06/09 06:38:07;;;;;;;22.83;10.88;;;;;;;14.16;95.85;101129.66;5094826;28;20112;-49
2022/06/09 06:40:32;;;;;;;22.00;11.23;;;;;;;14.15;96.40;101142.75;5076368;28;20123;-51
2022/06/09 06:42:57;;;;;;;22.73;10.73;;;;;;;14.12;97.56;101143.38;5072189;28;20335;-49
2022/06/09 06:45:23;;;;;;;21.55;10.30;;;;;;;14.12;95.85;101148.16;5072445;28;20037;-50
2022/06/09 06:47:48;;;;;;;19.65;10.38;;;;;;;14.06;96.80;101154.97;5072521;28;20024;-54
2022/06/09 06:50:14;;;;;;;21.15;10.05;;;;;;;14.06;96.45;101168.91;5072296;28;20664;-47
2022/06/09 06:52:40;;;;;;;21.48;10.27;;;;;;;14.05;96.71;101162.53;5070191;28;20048;-49
2022/06/09 06:55:08;;;;;;;23.85;10.10;;;;;;;14.01;97.74;101169.84;5071820;28;20071;-50
2022/06/09 06:57:34;;;;;;;23.38;10.55;;;;;;;14.03;97.94;101168.38;5072025;28;20035;-51
2022/06/09 07:00:00;;;;;;;22.10;10.85;;;;;;;14.07;98.54;101176.94;5072490;28;20474;-50
2022/06/09 07:02:26;;;;;;;22.83;11.00;;;;;;;14.12;98.07;101178.75;5072295;28;20083;-50
2022/06/09 07:04:51;;;;;;;24.85;11.35;;;;;;;14.16;98.08;101176.94;5070845;28;20032;-50
2022/06/09 07:07:17;;;;;;;23.60;11.52;;;;;;;14.20;98.03;101175.19;5072177;28;20132;-50
2022/06/09 07:09:42;;;;;;;26.40;11.65;;;;;;;14.27;96.89;101181.06;5071578;28;20052;-50
2022/06/09 07:12:09;;;;;;;25.63;11.55;;;;;;;14.28;97.73;101182.72;5071365;28;20493;-51
2022/06/09 07:14:35;;;;;;;24.38;12.50;;;;;;;14.43;95.47;101194.53;5071470;28;20389;-49
2022/06/09 07:17:01;;;;;;;31.98;12.18;;;;;;;14.40;94.95;101196.00;5071072;28;20131;-50
2022/06/09 07:19:26;;;;;;;25.05;12.32;;;;;;;14.43;94.57;101214.00;5085750;28;20039;-51
2022/06/09 07:21:52;;;;;;;23.05;12.75;;;;;;;14.38;95.09;101200.25;5071538;28;20395;-53
2022/06/09 07:24:18;;;;;;;20.60;11.25;;;;;;;14.42;94.87;101207.63;5071357;28;20792;-52
2022/06/09 07:26:44;;;;;;;22.35;10.52;;;;;;;14.46;93.90;101213.38;5071055;28;20057;-50
2022/06/09 07:29:10;;;;;;;19.20;10.18;;;;;;;14.55;94.24;101214.22;5071142;28;20039;-50
2022/06/09 07:31:35;;;;;;;18.73;9.48;;;;;;;14.67;93.16;101210.81;5071014;28;20025;-49
2022/06/09 07:34:00;;;;;;;20.50;9.07;;;;;;;14.82;92.43;101213.16;5069386;28;20032;-49
2022/06/09 07:36:26;;;;;;;18.23;9.40;;;;;;;14.88;91.16;101218.56;5071215;28;20123;-52
2022/06/09 07:38:52;;;;;;;18.85;9.40;;;;;;;15.01;91.98;101231.53;5071408;28;20060;-51
2022/06/09 07:41:20;;;;;;;17.95;8.73;;;;;;;15.16;89.31;101224.59;5071425;28;20111;-50
2022/06/09 07:43:49;;;;;;;16.67;8.15;;;;;;;15.18;87.06;101224.31;5070177;28;20024;-51
2022/06/09 07:46:16;;;;;;;16.55;8.27;;;;;;;15.15;87.64;101219.38;5070692;28;20024;-50
2022/06/09 07:48:44;;;;;;;15.15;8.50;;;;;;;15.27;87.82;101225.91;5071401;28;20431;-52
2022/06/09 07:51:10;;;;;;;16.88;8.13;;;;;;;15.27;87.21;101225.13;5071154;28;20051;-51
2022/06/09 07:53:35;;;;;;;14.95;8.70;;;;;;;15.34;86.81;101233.78;5072286;28;20320;-50
2022/06/09 07:56:01;;;;;;;16.70;8.77;;;;;;;15.41;88.35;101228.53;5071642;28;20623;-52
2022/06/09 07:58:26;;;;;;;16.60;7.97;;;;;;;15.57;87.46;101216.88;5071575;28;20032;-51
2022/06/09 08:00:52;;;;;;;15.95;7.70;;;;;;;15.85;85.63;101224.88;5071185;28;20030;-50
2022/06/09 08:03:21;;;;;;;15.65;8.55;;;;;;;15.95;87.23;101224.50;5070841;28;20380;-51
2022/06/09 08:05:47;;;;;;;17.10;8.18;;;;;;;16.00;85.39;101226.31;5069543;28;20101;-51
2022/06/09 08:08:12;;;;;;;17.55;8.40;;;;;;;16.01;86.25;101228.75;5071414;28;20029;-51
2022/06/09 08:10:39;;;;;;;17.23;8.80;;;;;;;16.19;85.23;101237.03;5086872;28;20294;-52
2022/06/09 08:13:05;;;;;;;15.93;9.10;;;;;;;16.31;86.85;101242.75;5071575;28;20039;-51
2022/06/09 08:15:32;;;;;;;16.42;8.52;;;;;;;16.36;83.53;101250.91;5070980;28;20031;-51
2022/06/09 08:17:59;;;;;;;16.27;8.73;;;;;;;16.41;81.23;101261.09;5071125;28;20115;-51
2022/06/09 08:20:27;;;;;;;13.88;7.90;;;;;;;16.44;80.73;101260.41;5070868;28;20024;-50
2022/06/09 08:23:00;;;;;;;11.88;7.75;;;;;;;16.51;79.51;101271.06;5070628;28;20056;-49
2022/06/09 08:25:26;;;;;;;12.35;7.40;;;;;;;16.59;76.06;101267.41;5070894;28;20052;-51
2022/06/09 08:27:51;;;;;;;11.27;7.40;;;;;;;16.69;72.87;101272.59;5071074;28;20447;-49
2022/06/09 08:30:17;;;;;;;11.68;7.20;;;;;;;16.76;72.56;101277.66;5070793;28;20112;-49
2022/06/09 08:32:42;;;;;;;11.40;7.32;;;;;;;16.76;73.35;101276.84;5071084;28;20388;-48
2022/06/09 08:35:11;;;;;;;12.38;7.70;;;;;;;16.80;73.53;101281.41;5091042;28;20036;-50
2022/06/09 08:37:37;;;;;;;10.32;7.53;;;;;;;16.83;72.99;101282.69;5091592;28;20024;-51
2022/06/09 08:40:04;;;;;;;10.88;7.40;;;;;;;16.81;72.32;101288.63;5091115;28;20103;-51
2022/06/09 08:42:37;;;;;;;8.65;7.07;;;;;;;17.03;72.86;101299.88;5091130;28;20036;-49
2022/06/09 08:45:14;;;;;;;10.93;7.22;;;;;;;17.05;72.77;101303.94;5090606;28;20028;-51
2022/06/09 08:47:51;;;;;;;10.05;7.47;;;;;;;17.20;72.09;101305.31;5089715;28;20426;-50
2022/06/09 08:50:28;;;;;;;11.45;7.68;;;;;;;17.20;71.26;101291.34;5091287;28;20052;-52
2022/06/09 08:53:05;;;;;;;9.82;7.30;;;;;;;17.28;69.37;101317.63;5090466;28;20036;-53
2022/06/09 08:55:36;;;;;;;10.80;7.68;;;;;;;17.00;70.35;101323.72;5090960;28;20034;-52
2022/06/09 08:58:29;;;;;;;11.77;7.68;;;;;;;16.79;70.72;101329.25;5090634;28;20106;-50
2022/06/09 09:01:03;;;;;;;11.27;7.73;;;;;;;16.75;71.87;101336.66;5091059;28;20101;-53
2022/06/09 09:03:34;;;;;;;12.48;7.65;;;;;;;16.80;69.34;101328.91;5091099;28;20039;-51
2022/06/09 09:06:07;;;;;;;14.02;8.40;;;;;;;16.83;69.40;101333.00;5090746;28;20070;-51
2022/06/09 09:08:32;;;;;;;13.70;8.35;;;;;;;16.78;69.42;101334.00;5090820;28;20433;-51
2022/06/09 09:11:18;;;;;;;14.60;8.43;;;;;;;16.77;70.73;101348.31;5089157;28;20024;-50
2022/06/09 09:13:53;;;;;;;16.13;9.00;;;;;;;16.71;71.20;101342.09;5090211;28;20096;-48
2022/06/09 09:16:33;;;;;;;15.02;9.20;;;;;;;16.69;71.79;101348.03;5090160;28;20366;-49
2022/06/09 09:19:12;;;;;;;17.95;9.50;;;;;;;16.35;74.42;101338.63;5090390;28;20035;-49
2022/06/09 09:22:00;;;;;;;15.80;9.30;;;;;;;16.40;75.61;101354.38;5090443;28;20038;-51
2022/06/09 09:24:39;;;;;;;15.40;9.55;;;;;;;16.43;75.91;101356.50;5090649;28;20024;-50
2022/06/09 09:27:24;;;;;;;15.35;8.95;;;;;;;16.52;75.47;101364.88;5090088;28;20089;-49
2022/06/09 09:30:04;;;;;;;15.77;9.50;;;;;;;16.47;75.41;101365.88;5089979;28;20198;-52
2022/06/09 09:32:40;;;;;;;17.40;9.55;;;;;;;16.48;75.23;101366.69;5089396;28;20127;-53
2022/06/09 09:35:14;;;;;;;17.20;9.73;;;;;;;16.42;75.46;101380.00;5089662;28;20023;-50
2022/06/09 09:37:45;;;;;;;18.42;10.20;;;;;;;16.51;76.09;101361.25;5090131;28;20016;-49
2022/06/09 09:40:28;;;;;;;17.65;9.50;;;;;;;16.69;75.01;101373.19;5090193;28;20028;-51
2022/06/09 09:42:57;;;;;;;16.50;9.23;;;;;;;16.77;74.49;101371.47;5090433;28;20458;-51
2022/06/09 09:45:32;;;;;;;15.45;9.25;;;;;;;16.95;74.00;101380.63;5090690;28;20024;-52
2022/06/09 09:48:00;;;;;;;14.70;9.07;;;;;;;17.05;72.09;101371.03;5090547;28;20077;-50
2022/06/09 09:50:46;;;;;;;17.67;9.60;;;;;;;17.14;72.22;101384.97;5089272;28;20032;-51
2022/06/09 09:53:21;;;;;;;16.55;8.48;;;;;;;17.28;70.25;101385.56;5090235;28;20348;-49
2022/06/09 09:55:54;;;;;;;16.23;8.88;;;;;;;17.32;70.87;101380.09;5092387;28;20020;-52
2022/06/09 09:58:28;;;;;;;16.60;9.20;;;;;;;17.50;70.20;101391.97;5094263;28;20453;-50
2022/06/09 10:00:58;;;;;;;15.93;9.10;;;;;;;17.36;70.27;101381.03;5094107;28;20528;-50
2022/06/09 10:09:20;;;;;;;14.77;8.77;;;;;;;17.85;68.81;101400.09;5094225;28;20519;-51
2022/06/09 10:11:55;;;;;;;14.63;9.18;;;;;;;17.88;68.01;101401.38;5092957;28;20028;-50
2022/06/09 10:14:56;;;;;;;17.83;9.70;;;;;;;18.04;68.49;101401.63;5092592;28;20036;-49
2022/06/09 10:17:35;;;;;;;15.00;8.75;;;;;;;18.03;67.81;101406.38;5090558;28;20055;-51
2022/06/09 10:20:30;;;;;;;17.77;9.40;;;;;;;18.06;68.58;101402.06;5093195;28;20165;-51
2022/06/09 10:23:28;;;;;;;17.95;9.43;;;;;;;17.97;69.00;101401.31;5093069;28;20139;-52
2022/06/09 10:26:19;;;;;;;18.17;9.90;;;;;;;18.13;69.18;101409.91;5093142;28;20528;-51
2022/06/09 10:28:55;;;;;;;17.83;10.20;;;;;;;18.32;68.39;101401.00;5092246;28;20123;-50
2022/06/09 10:31:45;;;;;;;17.00;9.70;;;;;;;18.48;67.35;101406.72;5093771;28;20030;-50
2022/06/09 10:34:33;;;;;;;18.10;9.70;;;;;;;18.50;68.12;101405.25;5093542;28;20488;-53
2022/06/09 10:37:25;;;;;;;17.50;9.40;;;;;;;18.37;67.22;101409.97;5093162;28;20028;-53
2022/06/09 10:40:23;;;;;;;19.05;9.43;;;;;;;18.43;67.15;101404.97;5087057;28;20509;-50
2022/06/09 10:43:11;;;;;;;17.50;9.55;;;;;;;18.47;66.19;101399.50;5093524;28;20034;-50
2022/06/09 10:45:50;;;;;;;17.45;8.98;;;;;;;18.69;65.59;101412.28;5092138;28;20081;-49
2022/06/09 10:57:16;;;;;;;15.73;9.13;;;;;;;19.16;64.47;101400.66;5092790;28;20050;-52
2022/06/09 11:00:01;;;;;;;14.20;9.00;;;;;;;19.23;65.00;101396.44;5092959;28;20474;-50
2022/06/09 11:02:29;;;;;;;16.83;8.90;;;;;;;19.43;62.38;101403.88;5092972;28;20070;-54
2022/06/09 11:04:55;;;;;;;17.70;9.50;;;;;;;19.53;60.30;101407.38;5092698;28;20024;-53
2022/06/09 11:07:48;;;;;;;18.80;9.15;;;;;;;19.69;61.62;101408.25;5091588;28;20026;-53
2022/06/09 11:10:20;;;;;;;17.38;8.90;;;;;;;19.81;58.75;101418.63;5092075;28;20112;-52
2022/06/09 11:12:59;;;;;;;19.90;10.02;;;;;;;19.90;60.25;101401.66;5092355;28;20540;-49
2022/06/09 11:15:34;;;;;;;16.33;9.70;;;;;;;19.99;58.55;101426.78;5089292;28;20041;-54
2022/06/09 11:18:08;;;;;;;18.30;9.45;;;;;;;19.85;60.34;101419.59;5091480;28;20032;-50
2022/06/09 11:20:50;;;;;;;17.73;9.20;;;;;;;19.73;60.63;101436.44;5091979;28;20040;-52
2022/06/09 11:24:05;;;;;;;15.27;9.05;;;;;;;19.54;61.11;101442.69;5091817;28;20028;-53
2022/06/09 11:26:51;;;;;;;18.77;9.43;;;;;;;19.22;62.44;101448.06;5083181;28;20359;-53
2022/06/09 11:29:52;;;;;;;17.60;9.60;;;;;;;19.09;61.98;101445.25;5091349;28;20110;-52
2022/06/09 11:32:34;;;;;;;17.30;9.52;;;;;;;18.93;61.33;101442.34;5091712;28;20027;-51
2022/06/09 11:35:20;;;;;;;16.88;9.20;;;;;;;19.20;60.15;101444.78;5091362;28;20028;-49
2022/06/09 11:38:00;;;;;;;19.98;9.40;;;;;;;19.07;59.91;101452.41;5091289;28;20024;-50
2022/06/09 11:40:48;;;;;;;19.98;9.25;;;;;;;19.02;60.32;101451.47;5091280;28;20501;-50
2022/06/09 11:43:22;;;;;;;14.00;8.95;;;;;;;19.31;58.80;101440.34;5091386;28;20031;-50
2022/06/09 11:45:53;;;;;;;17.35;9.50;;;;;;;19.23;57.93;101435.69;5091885;28;20063;-51
2022/06/09 11:48:24;;;;;;;15.38;9.25;;;;;;;19.45;58.17;101454.03;5091806;28;20493;-53
2022/06/09 11:50:51;;;;;;;18.23;8.70;;;;;;;19.41;57.01;101464.31;5089416;28;20020;-53
2022/06/09 11:53:24;;;;;;;15.13;8.55;;;;;;;19.09;58.39;101461.28;5091379;28;20532;-53